createdAt,value
2019-03-25T00:00:44.720Z,1.85
2019-03-25T00:03:45.898Z,2.27
2019-03-25T00:06:46.886Z,1.52
2019-03-25T00:09:47.879Z,1.40
2019-03-25T00:12:41.195Z,1.60
2019-03-25T00:15:42.508Z,2.22
2019-03-25T00:18:43.687Z,1.80
2019-03-25T00:21:41.066Z,1.82
2019-03-25T00:24:42.599Z,1.72
2019-03-25T00:27:43.594Z,1.85
2019-03-25T00:30:45.097Z,1.70
2019-03-25T00:33:46.343Z,1.50
2019-03-25T00:36:47.336Z,1.52
2019-03-25T00:39:48.328Z,1.32
2019-03-25T00:42:49.357Z,1.60
2019-03-25T00:45:50.311Z,1.70
2019-03-25T00:48:51.566Z,2.02
2019-03-25T00:51:52.556Z,1.98
2019-03-25T00:54:50.464Z,1.60
2019-03-25T00:57:51.208Z,1.67
2019-03-25T01:00:44.775Z,1.50
2019-03-25T01:03:38.345Z,2.02
2019-03-25T01:06:31.916Z,2.42
2019-03-25T01:09:32.907Z,2.62
2019-03-25T01:12:34.410Z,1.92
2019-03-25T01:15:27.978Z,2.42
2019-03-25T01:18:29.222Z,2.47
2019-03-25T01:21:30.216Z,2.98
2019-03-25T01:24:27.625Z,2.85
2019-03-25T01:27:28.616Z,2.40
2019-03-25T01:30:23.210Z,2.80
2019-03-25T01:33:24.458Z,2.30
2019-03-25T01:36:25.448Z,2.40
2019-03-25T01:39:26.697Z,3.35
2019-03-25T01:42:20.262Z,1.80
2019-03-25T01:45:22.545Z,2.08
2019-03-25T01:48:23.782Z,2.85
2019-03-25T01:51:21.296Z,1.80
2019-03-25T01:54:22.184Z,2.60
2019-03-25T01:57:23.435Z,3.15
2019-03-25T02:00:36.970Z,3.55
2019-03-25T02:03:37.958Z,2.17
2019-03-25T02:06:39.727Z,2.20
2019-03-25T02:09:36.874Z,2.60
2019-03-25T02:12:41.446Z,3.87
2019-03-25T02:15:42.439Z,2.60
2019-03-25T02:18:43.431Z,3.08
2019-03-25T02:21:44.167Z,4.25
2019-03-25T02:24:45.160Z,4.17
2019-03-25T02:27:46.152Z,3.62
2019-03-25T02:30:41.798Z,2.72
2019-03-25T02:33:42.760Z,2.40
2019-03-25T02:36:44.775Z,3.10
2019-03-25T02:39:45.767Z,2.87
2019-03-25T02:42:47.017Z,2.47
2019-03-25T02:45:51.592Z,5.37
2019-03-25T02:48:52.844Z,4.60
2019-03-25T02:51:53.830Z,3.58
2019-03-25T02:54:51.048Z,3.83
2019-03-25T02:57:51.984Z,3.40
2019-03-25T03:01:02.460Z,4.10
2019-03-25T03:04:06.505Z,5.00
2019-03-25T03:07:07.509Z,4.58
2019-03-25T03:10:08.496Z,5.45
2019-03-25T03:13:09.992Z,5.10
2019-03-25T03:16:10.984Z,4.10
2019-03-25T03:19:11.976Z,3.87
2019-03-25T03:22:12.981Z,3.65
2019-03-25T03:25:13.965Z,4.47
2019-03-25T03:28:15.212Z,3.42
2019-03-25T03:31:16.461Z,4.17
2019-03-25T03:34:17.460Z,4.92
2019-03-25T03:37:18.440Z,5.45
2019-03-25T03:40:19.697Z,5.12
2019-03-25T03:43:20.689Z,5.92
2019-03-25T03:46:21.675Z,4.28
2019-03-25T03:49:23.434Z,3.83
2019-03-25T03:52:24.183Z,6.70
2019-03-25T03:55:25.161Z,4.62
2019-03-25T03:58:26.151Z,3.35
2019-03-25T04:01:27.912Z,6.35
2019-03-25T04:04:25.235Z,3.85
2019-03-25T04:07:27.336Z,4.30
2019-03-25T04:10:24.638Z,5.78
2019-03-25T04:13:25.486Z,4.75
2019-03-25T04:16:26.479Z,6.70
2019-03-25T04:19:28.489Z,5.50
2019-03-25T04:22:29.485Z,4.47
2019-03-25T04:25:30.476Z,5.40
2019-03-25T04:28:31.461Z,3.77
2019-03-25T04:31:32.456Z,4.22
2019-03-25T04:34:29.673Z,4.83
2019-03-25T04:37:30.600Z,6.85
2019-03-25T04:40:18.281Z,5.12
2019-03-25T04:43:19.529Z,6.25
2019-03-25T04:46:20.266Z,5.22
2019-03-25T04:49:21.255Z,4.35
2019-03-25T04:52:22.248Z,6.17
2019-03-25T04:55:23.495Z,4.50
2019-03-25T04:58:24.743Z,6.40
2019-03-25T05:01:27.016Z,6.25
2019-03-25T05:04:29.287Z,4.42
2019-03-25T05:07:30.283Z,4.55
2019-03-25T05:10:31.273Z,3.72
2019-03-25T05:13:35.335Z,4.35
2019-03-25T05:16:36.329Z,6.45
2019-03-25T05:19:37.323Z,5.58
2019-03-25T05:22:38.316Z,5.60
2019-03-25T05:25:35.527Z,5.45
2019-03-25T05:28:50.280Z,5.53
2019-03-25T05:31:51.272Z,4.83
2019-03-25T05:34:52.266Z,7.45
2019-03-25T05:37:53.255Z,5.12
2019-03-25T05:40:54.247Z,5.12
2019-03-25T05:43:55.241Z,6.25
2019-03-25T05:46:56.231Z,5.37
2019-03-25T05:49:57.226Z,5.62
2019-03-25T05:52:59.241Z,6.00
2019-03-25T05:56:00.240Z,4.75
2019-03-25T05:58:53.543Z,4.12
2019-03-25T06:01:54.541Z,6.65
2019-03-25T06:04:55.528Z,6.20
2019-03-25T06:07:56.522Z,5.12
2019-03-25T06:10:57.258Z,5.20
2019-03-25T06:13:58.253Z,4.60
2019-03-25T06:16:59.242Z,5.10
2019-03-25T06:20:00.493Z,6.60
2019-03-25T06:23:01.479Z,4.85
2019-03-25T06:26:02.726Z,6.08
2019-03-25T06:29:03.977Z,3.90
2019-03-25T06:32:05.230Z,3.95
2019-03-25T06:35:08.773Z,4.83
2019-03-25T06:38:07.720Z,5.05
2019-03-25T06:41:03.846Z,5.17
2019-03-25T06:44:04.849Z,4.53
2019-03-25T06:47:02.063Z,5.10
2019-03-25T06:50:02.986Z,5.12
2019-03-25T06:53:03.981Z,4.65
2019-03-25T06:56:05.232Z,4.30
2019-03-25T06:59:06.214Z,3.08
2019-03-25T07:02:07.214Z,4.53
2019-03-25T07:05:08.459Z,4.00
2019-03-25T07:08:09.448Z,3.98
2019-03-25T07:11:10.441Z,3.83
2019-03-25T07:14:11.434Z,5.10
2019-03-25T07:17:12.425Z,4.62
2019-03-25T07:20:13.416Z,4.30
2019-03-25T07:23:14.151Z,3.65
2019-03-25T07:26:15.150Z,4.10
2019-03-25T07:29:16.134Z,3.67
2019-03-25T07:32:17.131Z,3.98
2019-03-25T07:35:18.127Z,3.22
2019-03-25T07:38:19.113Z,3.45
2019-03-25T07:41:20.148Z,3.20
2019-03-25T07:44:21.353Z,4.47
2019-03-25T07:47:22.605Z,4.08
2019-03-25T07:50:23.849Z,4.28
2019-03-25T07:53:24.844Z,5.08
2019-03-25T07:56:18.151Z,2.95
2019-03-25T07:59:17.226Z,3.95
2019-03-25T08:02:16.825Z,3.62
2019-03-25T08:05:18.058Z,2.67
2019-03-25T08:08:18.791Z,3.72
2019-03-25T08:11:22.089Z,3.50
2019-03-25T08:14:23.591Z,3.20
2019-03-25T08:17:24.587Z,3.08
2019-03-25T08:20:18.155Z,2.72
2019-03-25T08:23:19.658Z,2.95
2019-03-25T08:26:21.168Z,3.00
2019-03-25T08:29:22.409Z,3.22
2019-03-25T08:32:23.401Z,3.35
2019-03-25T08:35:24.393Z,1.75
2019-03-25T08:38:25.383Z,2.52
2019-03-25T08:41:26.384Z,3.00
2019-03-25T08:44:28.391Z,2.67
2019-03-25T08:47:30.410Z,1.90
2019-03-25T08:50:31.662Z,2.75
2019-03-25T08:53:32.652Z,1.92
2019-03-25T08:56:33.642Z,2.72
2019-03-25T08:59:34.889Z,1.98
2019-03-25T09:02:36.138Z,1.75
2019-03-25T09:05:37.129Z,2.37
2019-03-25T09:08:39.148Z,2.40
2019-03-25T09:11:40.151Z,2.10
2019-03-25T09:14:41.130Z,1.60
2019-03-25T09:17:42.120Z,1.50
2019-03-25T09:20:43.117Z,2.22
2019-03-25T09:23:44.102Z,1.90
2019-03-25T09:26:45.097Z,1.60
2019-03-25T09:29:46.089Z,1.82
2019-03-25T09:32:47.082Z,1.90
2019-03-25T09:35:48.358Z,1.98
2019-03-25T09:38:49.319Z,1.55
2019-03-25T09:41:50.313Z,1.70
2019-03-25T09:44:51.562Z,1.52
2019-03-25T09:47:54.600Z,1.72
2019-03-25T09:50:55.850Z,2.20
2019-03-25T09:53:57.099Z,2.10
2019-03-25T09:57:00.153Z,2.15
2019-03-25T10:00:01.149Z,2.22
2019-03-25T10:03:02.649Z,1.47
2019-03-25T10:06:04.138Z,2.12
2019-03-25T10:10:02.475Z,1.10
2019-03-25T10:13:03.973Z,1.85
2019-03-25T10:16:09.830Z,1.72
2019-03-25T10:19:10.829Z,1.02
2019-03-25T10:22:04.392Z,1.30
2019-03-25T10:24:58.471Z,1.45
2019-03-25T10:27:59.481Z,1.52
2019-03-25T10:31:00.710Z,1.45
2019-03-25T10:34:01.964Z,1.17
2019-03-25T10:37:03.212Z,1.17
2019-03-25T10:40:04.207Z,1.35
2019-03-25T10:42:57.533Z,1.10
2019-03-25T10:45:57.996Z,1.50
2019-03-25T10:49:00.777Z,0.95
2019-03-25T10:52:02.792Z,0.98
2019-03-25T10:55:04.296Z,2.10
2019-03-25T10:58:05.544Z,1.50
2019-03-25T11:01:09.501Z,1.20
2019-03-25T11:04:08.815Z,1.15
2019-03-25T11:07:11.879Z,1.12
2019-03-25T11:10:13.863Z,1.10
2019-03-25T11:13:15.880Z,1.60
2019-03-25T11:16:17.386Z,1.15
2019-03-25T11:19:18.381Z,1.07
2019-03-25T11:22:19.890Z,1.05
2019-03-25T11:25:20.872Z,1.47
2019-03-25T11:28:22.120Z,1.05
2019-03-25T11:31:26.954Z,1.37
2019-03-25T11:34:27.946Z,2.02
2019-03-25T11:37:29.702Z,1.40
2019-03-25T11:40:24.298Z,1.10
2019-03-25T11:43:22.676Z,1.40
2019-03-25T11:46:16.806Z,1.40
2019-03-25T11:49:17.803Z,1.05
2019-03-25T11:52:37.746Z,1.20
2019-03-25T11:55:38.988Z,1.20
2019-03-25T11:58:40.234Z,1.12
2019-03-25T12:01:41.479Z,1.15
2019-03-25T12:04:42.729Z,1.60
2019-03-25T12:07:40.135Z,1.30
2019-03-25T12:10:42.409Z,1.10
2019-03-25T12:13:44.167Z,1.65
2019-03-25T12:16:45.419Z,1.07
2019-03-25T12:19:46.406Z,1.40
2019-03-25T12:22:47.400Z,1.25
2019-03-25T12:25:45.575Z,1.12
2019-03-25T12:28:53.991Z,1.60
2019-03-25T12:31:55.497Z,1.50
2019-03-25T12:34:56.744Z,1.47
2019-03-25T12:37:57.738Z,2.05
2019-03-25T12:40:58.737Z,1.10
2019-03-25T12:43:59.719Z,1.07
2019-03-25T12:47:01.226Z,1.30
2019-03-25T12:50:03.242Z,1.20
2019-03-25T12:53:11.655Z,1.20
2019-03-25T12:56:05.222Z,0.80
2019-03-25T12:59:06.216Z,1.72
2019-03-25T13:02:07.207Z,1.00
2019-03-25T13:05:08.198Z,1.12
2019-03-25T13:08:09.196Z,1.07
2019-03-25T13:11:10.185Z,1.40
2019-03-25T13:14:11.432Z,1.55
2019-03-25T13:17:13.703Z,1.57
2019-03-25T13:20:14.702Z,1.30
2019-03-25T13:23:15.687Z,1.57
2019-03-25T13:26:17.191Z,1.00
2019-03-25T13:29:18.443Z,1.25
2019-03-25T13:32:20.458Z,1.25
2019-03-25T13:35:21.707Z,1.52
2019-03-25T13:38:22.958Z,0.68
2019-03-25T13:41:23.944Z,1.20
2019-03-25T13:44:24.943Z,1.25
2019-03-25T13:47:26.187Z,1.35
2019-03-25T13:50:20.275Z,0.93
2019-03-25T13:53:22.795Z,1.42
2019-03-25T13:56:16.617Z,1.30
2019-03-25T13:59:20.680Z,0.93
2019-03-25T14:02:21.672Z,1.35
2019-03-25T14:05:22.661Z,1.75
2019-03-25T14:08:24.934Z,0.90
2019-03-25T14:11:25.929Z,1.10
2019-03-25T14:14:26.918Z,1.52
2019-03-25T14:17:27.913Z,1.42
2019-03-25T14:20:21.479Z,1.00
2019-03-25T14:23:22.726Z,1.67
2019-03-25T14:26:23.719Z,1.02
2019-03-25T14:29:25.224Z,1.45
2019-03-25T14:32:26.216Z,0.95
2019-03-25T14:35:24.495Z,1.22
2019-03-25T14:38:17.704Z,1.70
2019-03-25T14:41:19.207Z,1.47
2019-03-25T14:44:20.201Z,0.88
2019-03-25T14:47:22.215Z,1.37
2019-03-25T14:50:23.207Z,1.67
2019-03-25T14:53:24.201Z,1.87
2019-03-25T14:56:25.448Z,1.50
2019-03-25T14:59:26.440Z,1.75
2019-03-25T15:02:27.948Z,1.32
2019-03-25T15:05:21.256Z,1.20
2019-03-25T15:08:14.824Z,1.10
2019-03-25T15:11:26.601Z,1.40
2019-03-25T15:14:27.816Z,1.40
2019-03-25T15:17:28.811Z,1.57
2019-03-25T15:20:30.053Z,2.27
2019-03-25T15:23:31.814Z,1.25
2019-03-25T15:26:33.066Z,1.10
2019-03-25T15:29:34.055Z,0.93
2019-03-25T15:32:35.303Z,1.40
2019-03-25T15:35:36.302Z,1.20
2019-03-25T15:38:37.287Z,1.15
2019-03-25T15:41:38.535Z,1.30
2019-03-25T15:44:39.795Z,1.35
2019-03-25T15:47:43.784Z,1.15
2019-03-25T15:50:42.281Z,1.50
2019-03-25T15:53:43.271Z,1.50
2019-03-25T15:56:44.265Z,1.30
2019-03-25T15:59:47.050Z,1.22
2019-03-25T16:02:48.296Z,1.20
2019-03-25T16:05:49.800Z,1.42
2019-03-25T16:08:50.793Z,1.77
2019-03-25T16:11:53.580Z,1.40
2019-03-25T16:14:54.570Z,1.12
2019-03-25T16:17:59.402Z,1.57
2019-03-25T16:21:00.393Z,1.67
2019-03-25T16:24:06.249Z,0.90
2019-03-25T16:27:07.498Z,1.25
2019-03-25T16:30:08.742Z,1.20
2019-03-25T16:33:10.250Z,1.20
2019-03-25T16:36:11.498Z,1.07
2019-03-25T16:39:12.750Z,1.32
2019-03-25T16:42:14.001Z,1.00
2019-03-25T16:45:16.268Z,1.15
2019-03-25T16:48:17.513Z,1.15
2019-03-25T16:51:19.539Z,1.40
2019-03-25T16:54:20.791Z,1.90
2019-03-25T16:57:22.024Z,1.62
2019-03-25T17:00:27.723Z,1.30
2019-03-25T17:03:26.056Z,1.37
2019-03-25T17:06:27.302Z,1.30
2019-03-25T17:09:30.091Z,2.05
2019-03-25T17:12:31.080Z,2.08
2019-03-25T17:15:32.584Z,1.70
2019-03-25T17:18:33.575Z,1.85
2019-03-25T17:21:34.569Z,1.85
2019-03-25T17:24:48.789Z,2.33
2019-03-25T17:27:50.378Z,2.05
2019-03-25T17:30:52.903Z,1.65
2019-03-25T17:33:53.896Z,1.62
2019-03-25T17:36:55.655Z,2.10
2019-03-25T17:39:56.908Z,1.77
2019-03-25T17:42:57.903Z,1.72
2019-03-25T17:46:00.175Z,1.55
2019-03-25T17:49:01.159Z,1.95
2019-03-25T17:52:03.433Z,1.70
2019-03-25T17:58:18.985Z,1.20
2019-03-25T18:01:40.454Z,1.30
2019-03-25T18:04:41.451Z,1.30
2019-03-25T18:07:42.439Z,1.40
2019-03-25T18:10:44.204Z,1.70
2019-03-25T18:13:45.447Z,1.80
2019-03-25T18:16:46.706Z,2.22
2019-03-25T18:19:48.475Z,1.32
2019-03-25T18:22:49.964Z,1.60
2019-03-25T18:25:51.724Z,1.20
2019-03-25T18:28:52.967Z,1.12
2019-03-25T18:31:54.218Z,1.67
2019-03-25T18:34:55.468Z,1.67
2019-03-25T18:37:56.457Z,1.55
2019-03-25T18:40:57.702Z,1.30
2019-03-25T18:43:59.213Z,1.50
2019-03-25T18:47:00.206Z,1.50
2019-03-25T18:50:01.704Z,1.37
2019-03-25T18:53:02.964Z,1.17
2019-03-25T18:56:04.208Z,2.62
2019-03-25T18:59:06.739Z,1.85
2019-03-25T19:02:08.236Z,1.75
2019-03-25T19:05:09.494Z,1.77
2019-03-25T19:08:13.551Z,1.70
2019-03-25T19:11:14.810Z,1.55
2019-03-25T19:14:15.788Z,1.92
2019-03-25T19:17:17.060Z,1.57
2019-03-25T19:20:18.285Z,1.32
2019-03-25T19:23:20.294Z,1.42
2019-03-25T19:26:21.838Z,1.50
2019-03-25T19:29:23.306Z,1.75
2019-03-25T19:32:24.551Z,1.40
2019-03-25T19:35:17.881Z,1.55
2019-03-25T19:38:19.367Z,2.35
2019-03-25T19:41:31.742Z,2.22
2019-03-25T19:44:21.903Z,2.25
2019-03-25T19:47:23.367Z,1.70
2019-03-25T19:50:24.386Z,1.65
2019-03-25T19:53:19.346Z,1.90
2019-03-25T19:56:19.188Z,1.92
2019-03-25T19:59:20.179Z,2.52
2019-03-25T20:02:21.461Z,1.45
2019-03-25T20:05:16.901Z,1.82
2019-03-25T20:08:18.035Z,1.95
2019-03-25T20:11:19.279Z,1.45
2019-03-25T20:14:17.909Z,1.70
2019-03-25T20:17:18.954Z,2.08
2019-03-25T20:20:20.007Z,1.70
2019-03-25T20:23:17.137Z,1.70
2019-03-25T20:26:18.096Z,2.00
2019-03-25T20:29:19.335Z,1.50
2019-03-25T20:32:31.307Z,1.12
2019-03-25T20:35:21.908Z,1.20
2019-03-25T20:38:23.351Z,1.47
2019-03-25T20:41:20.820Z,1.32
2019-03-25T20:44:21.786Z,1.30
2019-03-25T20:47:23.007Z,1.55
2019-03-25T20:50:24.233Z,1.62
2019-03-25T20:53:25.484Z,1.55
2019-03-25T20:56:26.474Z,1.40
2019-03-25T20:59:27.470Z,1.27
2019-03-25T21:02:29.294Z,1.42
2019-03-25T21:05:31.611Z,1.67
2019-03-25T21:08:34.044Z,1.55
2019-03-25T21:11:35.020Z,1.70
2019-03-25T21:14:28.869Z,1.52
2019-03-25T21:17:18.527Z,1.80
2019-03-25T21:20:20.587Z,2.20
2019-03-25T21:23:21.846Z,2.00
2019-03-25T21:26:23.343Z,1.98
2019-03-25T21:29:25.380Z,1.60
2019-03-25T21:32:18.992Z,2.00
2019-03-25T21:35:23.820Z,1.37
2019-03-25T21:38:25.278Z,1.17
2019-03-25T21:41:27.836Z,1.90
2019-03-25T21:44:29.825Z,1.77
2019-03-25T21:47:30.790Z,2.00
2019-03-25T21:50:33.393Z,1.62
2019-03-25T21:53:23.071Z,2.15
2019-03-25T21:56:24.323Z,2.10
2019-03-25T21:59:25.854Z,1.85
2019-03-25T22:02:27.048Z,2.10
2019-03-25T22:05:20.616Z,1.50
2019-03-25T22:08:29.035Z,1.70
2019-03-25T22:11:30.535Z,1.72
2019-03-25T22:14:31.529Z,1.60
2019-03-25T22:17:33.290Z,1.35
2019-03-25T22:20:34.536Z,1.85
2019-03-25T22:23:40.398Z,1.45
2019-03-25T22:26:41.898Z,1.70
2019-03-25T22:29:43.146Z,1.07
2019-03-25T22:32:44.394Z,2.35
2019-03-25T22:35:45.387Z,1.27
2019-03-25T22:38:46.888Z,1.60
2019-03-25T22:41:47.880Z,1.85
2019-03-25T22:44:49.896Z,1.50
2019-03-25T22:47:50.896Z,1.70
2019-03-25T22:50:54.697Z,1.50
2019-03-25T22:53:56.199Z,1.85
2019-03-25T22:56:57.704Z,1.80
2019-03-25T22:59:59.210Z,2.30
2019-03-25T23:03:01.225Z,1.92
2019-03-25T23:06:02.216Z,1.90
2019-03-25T23:09:03.463Z,2.27
2019-03-25T23:12:04.967Z,1.62
2019-03-25T23:15:06.984Z,2.55
2019-03-25T23:18:08.999Z,1.80
2019-03-25T23:21:11.528Z,2.50
2019-03-25T23:24:12.790Z,1.70
2019-03-25T23:27:02.546Z,2.35
2019-03-25T23:30:04.275Z,1.67
2019-03-25T23:33:05.511Z,1.35
2019-03-25T23:36:06.502Z,2.20
2019-03-25T23:39:08.263Z,1.55
2019-03-25T23:42:09.513Z,1.10
2019-03-25T23:45:10.758Z,1.85
2019-03-25T23:48:12.281Z,2.27
2019-03-25T23:51:13.522Z,2.25
2019-03-25T23:54:28.331Z,2.47
2019-03-25T23:57:29.576Z,2.15
